sensor_id;sensor_type;location;lat;lon;timestamp;P1;durP1;ratioP1;P2;durP2;ratioP2
68655;SDS011;55638;51.122;13.606;2023-08-17T00:00:25;5.43;;;4.90;;
68655;SDS011;55638;51.122;13.606;2023-08-17T00:01:57;6.30;;;5.70;;
68655;SDS011;55638;51.122;13.606;2023-08-17T00:03:29;6.13;;;5.53;;
68655;SDS011;55638;51.122;13.606;2023-08-17T00:05:01;6.20;;;5.28;;
68655;SDS011;55638;51.122;13.606;2023-08-17T00:06:33;5.80;;;5.18;;
68655;SDS011;55638;51.122;13.606;2023-08-17T00:08:05;5.65;;;5.10;;
68655;SDS011;55638;51.122;13.606;2023-08-17T00:09:38;5.88;;;5.28;;
68655;SDS011;55638;51.122;13.606;2023-08-17T00:11:11;5.88;;;5.28;;
68655;SDS011;55638;51.122;13.606;2023-08-17T00:12:42;7.28;;;5.47;;
68655;SDS011;55638;51.122;13.606;2023-08-17T00:14:14;5.93;;;5.43;;
68655;SDS011;55638;51.122;13.606;2023-08-17T00:15:46;5.72;;;5.22;;
68655;SDS011;55638;51.122;13.606;2023-08-17T00:17:18;5.80;;;5.30;;
68655;SDS011;55638;51.122;13.606;2023-08-17T00:18:51;5.47;;;4.97;;
68655;SDS011;55638;51.122;13.606;2023-08-17T00:20:22;5.55;;;5.05;;
68655;SDS011;55638;51.122;13.606;2023-08-17T00:21:54;5.60;;;5.10;;
68655;SDS011;55638;51.122;13.606;2023-08-17T00:23:27;5.70;;;5.20;;
68655;SDS011;55638;51.122;13.606;2023-08-17T00:25:00;6.35;;;5.72;;
68655;SDS011;55638;51.122;13.606;2023-08-17T00:26:32;5.78;;;5.22;;
68655;SDS011;55638;51.122;13.606;2023-08-17T00:28:04;6.72;;;5.43;;
68655;SDS011;55638;51.122;13.606;2023-08-17T00:29:36;6.47;;;5.38;;
68655;SDS011;55638;51.122;13.606;2023-08-17T00:31:09;5.55;;;5.05;;
68655;SDS011;55638;51.122;13.606;2023-08-17T00:32:41;6.68;;;5.72;;
68655;SDS011;55638;51.122;13.606;2023-08-17T00:34:13;6.38;;;5.78;;
68655;SDS011;55638;51.122;13.606;2023-08-17T00:35:45;6.22;;;5.60;;
68655;SDS011;55638;51.122;13.606;2023-08-17T00:37:17;6.50;;;5.80;;
68655;SDS011;55638;51.122;13.606;2023-08-17T00:38:49;7.05;;;6.22;;
68655;SDS011;55638;51.122;13.606;2023-08-17T00:40:21;6.30;;;5.70;;
68655;SDS011;55638;51.122;13.606;2023-08-17T00:41:53;5.93;;;5.32;;
68655;SDS011;55638;51.122;13.606;2023-08-17T00:43:25;6.93;;;6.10;;
68655;SDS011;55638;51.122;13.606;2023-08-17T00:44:58;6.22;;;5.63;;
68655;SDS011;55638;51.122;13.606;2023-08-17T00:46:30;6.80;;;6.18;;
68655;SDS011;55638;51.122;13.606;2023-08-17T00:48:04;6.85;;;5.85;;
68655;SDS011;55638;51.122;13.606;2023-08-17T00:49:39;6.70;;;6.10;;
68655;SDS011;55638;51.122;13.606;2023-08-17T00:51:12;6.85;;;5.85;;
68655;SDS011;55638;51.122;13.606;2023-08-17T00:52:44;6.82;;;6.18;;
68655;SDS011;55638;51.122;13.606;2023-08-17T00:54:16;6.43;;;5.45;;
68655;SDS011;55638;51.122;13.606;2023-08-17T00:55:55;6.43;;;5.82;;
68655;SDS011;55638;51.122;13.606;2023-08-17T00:57:27;7.05;;;5.45;;
68655;SDS011;55638;51.122;13.606;2023-08-17T00:59:00;6.13;;;5.40;;
68655;SDS011;55638;51.122;13.606;2023-08-17T01:00:32;6.57;;;5.93;;
68655;SDS011;55638;51.122;13.606;2023-08-17T01:02:04;6.05;;;5.45;;
68655;SDS011;55638;51.122;13.606;2023-08-17T01:03:36;7.95;;;5.68;;
68655;SDS011;55638;51.122;13.606;2023-08-17T01:05:09;6.40;;;5.80;;
68655;SDS011;55638;51.122;13.606;2023-08-17T01:06:41;6.43;;;5.85;;
68655;SDS011;55638;51.122;13.606;2023-08-17T01:08:13;6.38;;;5.70;;
68655;SDS011;55638;51.122;13.606;2023-08-17T01:09:45;5.97;;;5.47;;
68655;SDS011;55638;51.122;13.606;2023-08-17T01:11:22;6.03;;;5.43;;
68655;SDS011;55638;51.122;13.606;2023-08-17T01:13:05;6.03;;;5.40;;
68655;SDS011;55638;51.122;13.606;2023-08-17T01:16:40;6.20;;;5.60;;
68655;SDS011;55638;51.122;13.606;2023-08-17T01:18:23;7.53;;;5.93;;
68655;SDS011;55638;51.122;13.606;2023-08-17T01:20:00;6.10;;;5.05;;
68655;SDS011;55638;51.122;13.606;2023-08-17T01:21:41;11.65;;;5.82;;
68655;SDS011;55638;51.122;13.606;2023-08-17T01:23:16;6.72;;;6.03;;
68655;SDS011;55638;51.122;13.606;2023-08-17T01:24:48;7.28;;;6.32;;
68655;SDS011;55638;51.122;13.606;2023-08-17T01:26:20;6.50;;;5.90;;
68655;SDS011;55638;51.122;13.606;2023-08-17T01:27:52;7.40;;;6.57;;
68655;SDS011;55638;51.122;13.606;2023-08-17T01:29:24;6.93;;;6.30;;
68655;SDS011;55638;51.122;13.606;2023-08-17T01:31:10;7.40;;;6.65;;
68655;SDS011;55638;51.122;13.606;2023-08-17T01:33:01;6.90;;;6.20;;
68655;SDS011;55638;51.122;13.606;2023-08-17T01:34:40;6.85;;;6.20;;
68655;SDS011;55638;51.122;13.606;2023-08-17T01:37:58;7.03;;;6.10;;
68655;SDS011;55638;51.122;13.606;2023-08-17T01:39:34;5.95;;;5.45;;
68655;SDS011;55638;51.122;13.606;2023-08-17T01:41:09;5.93;;;5.28;;
68655;SDS011;55638;51.122;13.606;2023-08-17T01:42:47;6.25;;;5.70;;
68655;SDS011;55638;51.122;13.606;2023-08-17T01:44:21;6.80;;;6.10;;
68655;SDS011;55638;51.122;13.606;2023-08-17T01:45:54;6.75;;;6.07;;
68655;SDS011;55638;51.122;13.606;2023-08-17T01:47:26;6.13;;;5.55;;
68655;SDS011;55638;51.122;13.606;2023-08-17T01:48:59;7.13;;;6.43;;
68655;SDS011;55638;51.122;13.606;2023-08-17T01:50:31;7.03;;;6.32;;
68655;SDS011;55638;51.122;13.606;2023-08-17T01:52:03;6.55;;;5.95;;
68655;SDS011;55638;51.122;13.606;2023-08-17T01:53:35;7.55;;;6.10;;
68655;SDS011;55638;51.122;13.606;2023-08-17T01:55:07;6.82;;;6.13;;
68655;SDS011;55638;51.122;13.606;2023-08-17T01:56:40;7.47;;;6.50;;
68655;SDS011;55638;51.122;13.606;2023-08-17T01:58:12;7.35;;;5.93;;
68655;SDS011;55638;51.122;13.606;2023-08-17T01:59:44;6.20;;;5.25;;
68655;SDS011;55638;51.122;13.606;2023-08-17T02:01:16;6.38;;;5.78;;
68655;SDS011;55638;51.122;13.606;2023-08-17T02:02:48;8.07;;;5.72;;
68655;SDS011;55638;51.122;13.606;2023-08-17T02:04:20;6.43;;;5.82;;
68655;SDS011;55638;51.122;13.606;2023-08-17T02:05:52;6.68;;;5.97;;
68655;SDS011;55638;51.122;13.606;2023-08-17T02:07:24;6.32;;;5.72;;
68655;SDS011;55638;51.122;13.606;2023-08-17T02:08:57;6.88;;;6.15;;
68655;SDS011;55638;51.122;13.606;2023-08-17T02:10:30;6.18;;;5.57;;
68655;SDS011;55638;51.122;13.606;2023-08-17T02:12:02;6.03;;;5.50;;
68655;SDS011;55638;51.122;13.606;2023-08-17T02:13:34;5.95;;;5.35;;
68655;SDS011;55638;51.122;13.606;2023-08-17T02:15:07;5.88;;;5.07;;
68655;SDS011;55638;51.122;13.606;2023-08-17T02:16:39;6.28;;;5.68;;
68655;SDS011;55638;51.122;13.606;2023-08-17T02:18:11;5.82;;;5.22;;
68655;SDS011;55638;51.122;13.606;2023-08-17T02:19:43;5.45;;;4.95;;
68655;SDS011;55638;51.122;13.606;2023-08-17T02:21:15;5.82;;;5.22;;
68655;SDS011;55638;51.122;13.606;2023-08-17T02:22:48;5.30;;;4.80;;
68655;SDS011;55638;51.122;13.606;2023-08-17T02:24:20;6.63;;;5.55;;
68655;SDS011;55638;51.122;13.606;2023-08-17T02:25:56;6.45;;;5.80;;
68655;SDS011;55638;51.122;13.606;2023-08-17T02:27:27;5.43;;;4.93;;
68655;SDS011;55638;51.122;13.606;2023-08-17T02:29:02;5.70;;;5.15;;
68655;SDS011;55638;51.122;13.606;2023-08-17T02:30:34;5.80;;;5.30;;
68655;SDS011;55638;51.122;13.606;2023-08-17T02:32:06;5.70;;;5.15;;
68655;SDS011;55638;51.122;13.606;2023-08-17T02:33:38;5.78;;;5.18;;
68655;SDS011;55638;51.122;13.606;2023-08-17T02:35:10;5.47;;;4.97;;
68655;SDS011;55638;51.122;13.606;2023-08-17T02:36:42;6.03;;;5.43;;
68655;SDS011;55638;51.122;13.606;2023-08-17T02:38:14;5.90;;;5.40;;
68655;SDS011;55638;51.122;13.606;2023-08-17T02:39:46;5.63;;;5.10;;
68655;SDS011;55638;51.122;13.606;2023-08-17T02:41:18;5.65;;;5.03;;
68655;SDS011;55638;51.122;13.606;2023-08-17T02:42:50;5.72;;;5.22;;
68655;SDS011;55638;51.122;13.606;2023-08-17T02:44:22;5.53;;;5.03;;
68655;SDS011;55638;51.122;13.606;2023-08-17T02:45:54;5.38;;;4.95;;
68655;SDS011;55638;51.122;13.606;2023-08-17T02:47:26;7.90;;;5.38;;
68655;SDS011;55638;51.122;13.606;2023-08-17T02:48:58;5.68;;;5.15;;
68655;SDS011;55638;51.122;13.606;2023-08-17T02:50:30;5.65;;;5.15;;
68655;SDS011;55638;51.122;13.606;2023-08-17T02:52:02;5.90;;;5.32;;
68655;SDS011;55638;51.122;13.606;2023-08-17T02:53:34;5.50;;;5.00;;
68655;SDS011;55638;51.122;13.606;2023-08-17T02:55:06;5.60;;;5.10;;
68655;SDS011;55638;51.122;13.606;2023-08-17T02:56:38;6.25;;;5.20;;
68655;SDS011;55638;51.122;13.606;2023-08-17T02:58:11;6.20;;;5.07;;
68655;SDS011;55638;51.122;13.606;2023-08-17T02:59:43;5.65;;;5.15;;
68655;SDS011;55638;51.122;13.606;2023-08-17T03:01:14;5.60;;;4.93;;
68655;SDS011;55638;51.122;13.606;2023-08-17T03:02:46;5.63;;;5.03;;
68655;SDS011;55638;51.122;13.606;2023-08-17T03:04:19;4.90;;;4.50;;
68655;SDS011;55638;51.122;13.606;2023-08-17T03:05:51;4.85;;;4.45;;
68655;SDS011;55638;51.122;13.606;2023-08-17T03:07:22;5.85;;;5.03;;
68655;SDS011;55638;51.122;13.606;2023-08-17T03:08:55;4.97;;;4.57;;
68655;SDS011;55638;51.122;13.606;2023-08-17T03:10:27;5.53;;;4.68;;
68655;SDS011;55638;51.122;13.606;2023-08-17T03:11:59;5.10;;;4.40;;
68655;SDS011;55638;51.122;13.606;2023-08-17T03:13:30;4.95;;;4.50;;
68655;SDS011;55638;51.122;13.606;2023-08-17T03:15:03;5.18;;;4.78;;
68655;SDS011;55638;51.122;13.606;2023-08-17T03:16:38;5.13;;;4.72;;
68655;SDS011;55638;51.122;13.606;2023-08-17T03:18:10;5.20;;;4.72;;
68655;SDS011;55638;51.122;13.606;2023-08-17T03:19:42;5.65;;;5.03;;
68655;SDS011;55638;51.122;13.606;2023-08-17T03:21:14;4.78;;;4.38;;
68655;SDS011;55638;51.122;13.606;2023-08-17T03:22:46;5.18;;;4.63;;
68655;SDS011;55638;51.122;13.606;2023-08-17T03:24:18;5.28;;;4.60;;
68655;SDS011;55638;51.122;13.606;2023-08-17T03:25:51;5.00;;;4.25;;
68655;SDS011;55638;51.122;13.606;2023-08-17T03:27:24;5.25;;;4.75;;
68655;SDS011;55638;51.122;13.606;2023-08-17T03:28:57;4.90;;;4.50;;
68655;SDS011;55638;51.122;13.606;2023-08-17T03:30:29;4.50;;;4.10;;
68655;SDS011;55638;51.122;13.606;2023-08-17T03:32:00;5.38;;;4.88;;
68655;SDS011;55638;51.122;13.606;2023-08-17T03:33:33;5.18;;;4.25;;
68655;SDS011;55638;51.122;13.606;2023-08-17T03:35:05;4.72;;;4.32;;
68655;SDS011;55638;51.122;13.606;2023-08-17T03:36:37;5.03;;;4.25;;
68655;SDS011;55638;51.122;13.606;2023-08-17T03:38:09;5.15;;;4.72;;
68655;SDS011;55638;51.122;13.606;2023-08-17T03:39:41;5.15;;;4.65;;
68655;SDS011;55638;51.122;13.606;2023-08-17T03:41:13;5.00;;;4.55;;
68655;SDS011;55638;51.122;13.606;2023-08-17T03:42:45;4.85;;;4.45;;
68655;SDS011;55638;51.122;13.606;2023-08-17T03:44:18;5.03;;;4.40;;
68655;SDS011;55638;51.122;13.606;2023-08-17T03:45:50;5.47;;;4.95;;
68655;SDS011;55638;51.122;13.606;2023-08-17T03:47:21;5.03;;;4.30;;
68655;SDS011;55638;51.122;13.606;2023-08-17T03:48:54;4.45;;;4.15;;
68655;SDS011;55638;51.122;13.606;2023-08-17T03:50:27;4.70;;;4.30;;
68655;SDS011;55638;51.122;13.606;2023-08-17T03:51:59;4.50;;;4.13;;
68655;SDS011;55638;51.122;13.606;2023-08-17T03:53:31;4.88;;;4.47;;
68655;SDS011;55638;51.122;13.606;2023-08-17T03:55:03;5.05;;;4.55;;
68655;SDS011;55638;51.122;13.606;2023-08-17T03:56:38;5.85;;;4.85;;
68655;SDS011;55638;51.122;13.606;2023-08-17T03:58:10;5.05;;;4.55;;
68655;SDS011;55638;51.122;13.606;2023-08-17T03:59:42;4.70;;;4.30;;
68655;SDS011;55638;51.122;13.606;2023-08-17T04:01:14;4.80;;;4.18;;
68655;SDS011;55638;51.122;13.606;2023-08-17T04:02:47;4.40;;;4.00;;
68655;SDS011;55638;51.122;13.606;2023-08-17T04:04:22;4.65;;;4.20;;
68655;SDS011;55638;51.122;13.606;2023-08-17T04:05:54;4.40;;;3.97;;
68655;SDS011;55638;51.122;13.606;2023-08-17T04:07:25;5.22;;;4.45;;
68655;SDS011;55638;51.122;13.606;2023-08-17T04:08:58;5.20;;;4.70;;
68655;SDS011;55638;51.122;13.606;2023-08-17T04:10:30;4.70;;;4.30;;
68655;SDS011;55638;51.122;13.606;2023-08-17T04:12:02;4.78;;;4.30;;
68655;SDS011;55638;51.122;13.606;2023-08-17T04:13:39;4.88;;;4.40;;
68655;SDS011;55638;51.122;13.606;2023-08-17T04:15:11;4.50;;;4.10;;
68655;SDS011;55638;51.122;13.606;2023-08-17T04:16:42;5.07;;;4.65;;
68655;SDS011;55638;51.122;13.606;2023-08-17T04:18:14;4.68;;;4.28;;
68655;SDS011;55638;51.122;13.606;2023-08-17T04:19:46;4.38;;;4.03;;
68655;SDS011;55638;51.122;13.606;2023-08-17T04:21:19;5.05;;;4.28;;
68655;SDS011;55638;51.122;13.606;2023-08-17T04:22:52;4.72;;;4.20;;
68655;SDS011;55638;51.122;13.606;2023-08-17T04:24:24;4.53;;;4.13;;
68655;SDS011;55638;51.122;13.606;2023-08-17T04:25:56;4.30;;;3.95;;
68655;SDS011;55638;51.122;13.606;2023-08-17T04:27:28;4.88;;;4.35;;
68655;SDS011;55638;51.122;13.606;2023-08-17T04:29:00;4.60;;;4.20;;
68655;SDS011;55638;51.122;13.606;2023-08-17T04:30:32;4.60;;;4.20;;
68655;SDS011;55638;51.122;13.606;2023-08-17T04:32:06;4.55;;;4.15;;
68655;SDS011;55638;51.122;13.606;2023-08-17T04:33:39;4.43;;;4.13;;
68655;SDS011;55638;51.122;13.606;2023-08-17T04:35:12;5.05;;;4.60;;
68655;SDS011;55638;51.122;13.606;2023-08-17T04:36:44;4.90;;;4.28;;
68655;SDS011;55638;51.122;13.606;2023-08-17T04:38:15;4.63;;;3.95;;
68655;SDS011;55638;51.122;13.606;2023-08-17T04:39:49;4.75;;;4.05;;
68655;SDS011;55638;51.122;13.606;2023-08-17T04:41:24;4.90;;;4.47;;
68655;SDS011;55638;51.122;13.606;2023-08-17T04:42:57;4.90;;;4.50;;
68655;SDS011;55638;51.122;13.606;2023-08-17T04:44:30;4.70;;;4.30;;
68655;SDS011;55638;51.122;13.606;2023-08-17T04:46:03;4.88;;;4.47;;
68655;SDS011;55638;51.122;13.606;2023-08-17T04:47:36;4.85;;;4.45;;
68655;SDS011;55638;51.122;13.606;2023-08-17T04:49:08;6.10;;;5.50;;
68655;SDS011;55638;51.122;13.606;2023-08-17T04:50:40;5.38;;;4.88;;
68655;SDS011;55638;51.122;13.606;2023-08-17T04:52:12;5.03;;;4.60;;
68655;SDS011;55638;51.122;13.606;2023-08-17T04:53:44;5.65;;;5.15;;
68655;SDS011;55638;51.122;13.606;2023-08-17T04:55:16;5.20;;;4.70;;
68655;SDS011;55638;51.122;13.606;2023-08-17T04:56:48;5.72;;;5.13;;
68655;SDS011;55638;51.122;13.606;2023-08-17T04:58:20;5.07;;;4.63;;
68655;SDS011;55638;51.122;13.606;2023-08-17T04:59:52;5.65;;;4.82;;
68655;SDS011;55638;51.122;13.606;2023-08-17T05:01:24;6.15;;;5.25;;
68655;SDS011;55638;51.122;13.606;2023-08-17T05:02:58;5.63;;;4.93;;
68655;SDS011;55638;51.122;13.606;2023-08-17T05:04:35;5.30;;;4.80;;
68655;SDS011;55638;51.122;13.606;2023-08-17T05:06:07;5.10;;;4.70;;
68655;SDS011;55638;51.122;13.606;2023-08-17T05:07:41;5.63;;;5.13;;
68655;SDS011;55638;51.122;13.606;2023-08-17T05:09:13;5.85;;;5.25;;
68655;SDS011;55638;51.122;13.606;2023-08-17T05:10:45;5.68;;;5.18;;
68655;SDS011;55638;51.122;13.606;2023-08-17T05:12:17;5.28;;;4.75;;
68655;SDS011;55638;51.122;13.606;2023-08-17T05:13:50;5.45;;;4.95;;
68655;SDS011;55638;51.122;13.606;2023-08-17T05:15:21;5.25;;;4.75;;
68655;SDS011;55638;51.122;13.606;2023-08-17T05:16:54;5.18;;;4.78;;
68655;SDS011;55638;51.122;13.606;2023-08-17T05:18:26;5.40;;;4.75;;
68655;SDS011;55638;51.122;13.606;2023-08-17T05:19:58;5.60;;;5.10;;
68655;SDS011;55638;51.122;13.606;2023-08-17T05:21:30;6.30;;;5.70;;
68655;SDS011;55638;51.122;13.606;2023-08-17T05:23:02;5.80;;;5.25;;
68655;SDS011;55638;51.122;13.606;2023-08-17T05:24:34;5.22;;;4.72;;
68655;SDS011;55638;51.122;13.606;2023-08-17T05:26:06;5.32;;;4.82;;
68655;SDS011;55638;51.122;13.606;2023-08-17T05:27:37;5.22;;;4.72;;
68655;SDS011;55638;51.122;13.606;2023-08-17T05:29:09;5.18;;;4.68;;
68655;SDS011;55638;51.122;13.606;2023-08-17T05:30:41;5.30;;;4.85;;
68655;SDS011;55638;51.122;13.606;2023-08-17T05:32:13;6.03;;;5.30;;
68655;SDS011;55638;51.122;13.606;2023-08-17T05:33:46;5.80;;;5.30;;
68655;SDS011;55638;51.122;13.606;2023-08-17T05:35:18;5.30;;;4.75;;
68655;SDS011;55638;51.122;13.606;2023-08-17T05:36:50;5.43;;;5.03;;
68655;SDS011;55638;51.122;13.606;2023-08-17T05:38:22;5.03;;;4.57;;
68655;SDS011;55638;51.122;13.606;2023-08-17T05:39:54;5.72;;;5.00;;
68655;SDS011;55638;51.122;13.606;2023-08-17T05:41:26;5.72;;;5.13;;
68655;SDS011;55638;51.122;13.606;2023-08-17T05:42:58;5.60;;;4.80;;
68655;SDS011;55638;51.122;13.606;2023-08-17T05:44:31;5.25;;;4.75;;
68655;SDS011;55638;51.122;13.606;2023-08-17T05:46:03;5.55;;;4.90;;
68655;SDS011;55638;51.122;13.606;2023-08-17T05:47:35;5.60;;;4.78;;
68655;SDS011;55638;51.122;13.606;2023-08-17T05:49:07;5.72;;;5.07;;
68655;SDS011;55638;51.122;13.606;2023-08-17T05:50:42;5.35;;;4.85;;
68655;SDS011;55638;51.122;13.606;2023-08-17T05:52:14;5.45;;;4.95;;
68655;SDS011;55638;51.122;13.606;2023-08-17T05:53:46;5.75;;;5.10;;
68655;SDS011;55638;51.122;13.606;2023-08-17T05:55:19;5.75;;;5.18;;
68655;SDS011;55638;51.122;13.606;2023-08-17T05:56:51;6.97;;;5.78;;
68655;SDS011;55638;51.122;13.606;2023-08-17T05:58:23;5.95;;;5.45;;
68655;SDS011;55638;51.122;13.606;2023-08-17T05:59:55;6.22;;;5.38;;
68655;SDS011;55638;51.122;13.606;2023-08-17T06:01:27;5.80;;;5.30;;
68655;SDS011;55638;51.122;13.606;2023-08-17T06:02:59;6.15;;;5.65;;
68655;SDS011;55638;51.122;13.606;2023-08-17T06:04:34;6.60;;;6.00;;
68655;SDS011;55638;51.122;13.606;2023-08-17T06:06:06;6.30;;;5.70;;
68655;SDS011;55638;51.122;13.606;2023-08-17T06:07:38;6.28;;;5.63;;
68655;SDS011;55638;51.122;13.606;2023-08-17T06:09:10;6.57;;;5.53;;
68655;SDS011;55638;51.122;13.606;2023-08-17T06:10:42;5.53;;;5.07;;
68655;SDS011;55638;51.122;13.606;2023-08-17T06:12:14;5.88;;;5.28;;
68655;SDS011;55638;51.122;13.606;2023-08-17T06:13:46;6.00;;;5.50;;
68655;SDS011;55638;51.122;13.606;2023-08-17T06:15:18;5.90;;;5.40;;
68655;SDS011;55638;51.122;13.606;2023-08-17T06:16:50;6.47;;;5.57;;
68655;SDS011;55638;51.122;13.606;2023-08-17T06:18:22;6.43;;;5.88;;
68655;SDS011;55638;51.122;13.606;2023-08-17T06:19:54;6.38;;;5.32;;
68655;SDS011;55638;51.122;13.606;2023-08-17T06:21:26;6.43;;;5.82;;
68655;SDS011;55638;51.122;13.606;2023-08-17T06:22:58;6.35;;;5.78;;
68655;SDS011;55638;51.122;13.606;2023-08-17T06:24:31;5.97;;;5.47;;
68655;SDS011;55638;51.122;13.606;2023-08-17T06:26:03;5.90;;;5.40;;
68655;SDS011;55638;51.122;13.606;2023-08-17T06:27:35;5.45;;;4.95;;
68655;SDS011;55638;51.122;13.606;2023-08-17T06:29:07;5.20;;;4.70;;
68655;SDS011;55638;51.122;13.606;2023-08-17T06:30:39;6.00;;;5.40;;
68655;SDS011;55638;51.122;13.606;2023-08-17T06:32:11;5.82;;;5.07;;
68655;SDS011;55638;51.122;13.606;2023-08-17T06:33:43;5.95;;;5.22;;
68655;SDS011;55638;51.122;13.606;2023-08-17T06:35:15;6.43;;;5.35;;
68655;SDS011;55638;51.122;13.606;2023-08-17T06:36:57;5.57;;;4.97;;
68655;SDS011;55638;51.122;13.606;2023-08-17T06:38:30;5.65;;;5.10;;
68655;SDS011;55638;51.122;13.606;2023-08-17T06:40:05;5.75;;;5.25;;
68655;SDS011;55638;51.122;13.606;2023-08-17T06:41:38;5.72;;;5.22;;
68655;SDS011;55638;51.122;13.606;2023-08-17T06:43:10;5.57;;;5.07;;
68655;SDS011;55638;51.122;13.606;2023-08-17T06:44:42;5.82;;;5.22;;
68655;SDS011;55638;51.122;13.606;2023-08-17T06:46:14;7.72;;;4.80;;
68655;SDS011;55638;51.122;13.606;2023-08-17T06:47:46;5.40;;;4.85;;
68655;SDS011;55638;51.122;13.606;2023-08-17T06:49:20;4.90;;;4.38;;
68655;SDS011;55638;51.122;13.606;2023-08-17T06:50:52;5.28;;;4.78;;
68655;SDS011;55638;51.122;13.606;2023-08-17T06:52:24;5.05;;;4.65;;
68655;SDS011;55638;51.122;13.606;2023-08-17T06:53:56;4.95;;;4.55;;
68655;SDS011;55638;51.122;13.606;2023-08-17T06:55:28;5.15;;;4.75;;
68655;SDS011;55638;51.122;13.606;2023-08-17T06:57:01;4.78;;;4.38;;
68655;SDS011;55638;51.122;13.606;2023-08-17T06:58:33;5.38;;;4.75;;
68655;SDS011;55638;51.122;13.606;2023-08-17T07:00:05;5.07;;;4.60;;
68655;SDS011;55638;51.122;13.606;2023-08-17T07:01:37;4.97;;;4.55;;
68655;SDS011;55638;51.122;13.606;2023-08-17T07:03:10;5.28;;;4.78;;
68655;SDS011;55638;51.122;13.606;2023-08-17T07:04:43;5.03;;;4.63;;
68655;SDS011;55638;51.122;13.606;2023-08-17T07:06:15;4.93;;;4.53;;
68655;SDS011;55638;51.122;13.606;2023-08-17T07:07:47;5.53;;;5.03;;
68655;SDS011;55638;51.122;13.606;2023-08-17T07:09:19;5.47;;;4.97;;
68655;SDS011;55638;51.122;13.606;2023-08-17T07:10:52;5.57;;;5.05;;
68655;SDS011;55638;51.122;13.606;2023-08-17T07:12:24;5.28;;;4.82;;
68655;SDS011;55638;51.122;13.606;2023-08-17T07:13:56;5.60;;;5.00;;
68655;SDS011;55638;51.122;13.606;2023-08-17T07:15:29;5.10;;;4.68;;
68655;SDS011;55638;51.122;13.606;2023-08-17T07:17:01;5.85;;;4.80;;
68655;SDS011;55638;51.122;13.606;2023-08-17T07:18:33;5.05;;;4.55;;
68655;SDS011;55638;51.122;13.606;2023-08-17T07:20:05;5.32;;;4.82;;
68655;SDS011;55638;51.122;13.606;2023-08-17T07:21:43;5.03;;;4.55;;
68655;SDS011;55638;51.122;13.606;2023-08-17T07:23:15;5.35;;;4.95;;
68655;SDS011;55638;51.122;13.606;2023-08-17T07:24:47;5.55;;;5.07;;
68655;SDS011;55638;51.122;13.606;2023-08-17T07:26:19;5.28;;;4.78;;
68655;SDS011;55638;51.122;13.606;2023-08-17T07:27:52;5.00;;;4.63;;
68655;SDS011;55638;51.122;13.606;2023-08-17T07:29:24;5.53;;;4.95;;
68655;SDS011;55638;51.122;13.606;2023-08-17T07:30:56;5.55;;;4.70;;
68655;SDS011;55638;51.122;13.606;2023-08-17T07:32:27;5.80;;;4.97;;
68655;SDS011;55638;51.122;13.606;2023-08-17T07:34:00;5.90;;;5.40;;
68655;SDS011;55638;51.122;13.606;2023-08-17T07:35:32;5.40;;;5.00;;
68655;SDS011;55638;51.122;13.606;2023-08-17T07:37:04;5.28;;;4.88;;
68655;SDS011;55638;51.122;13.606;2023-08-17T07:38:37;5.30;;;4.90;;
68655;SDS011;55638;51.122;13.606;2023-08-17T07:40:09;9.32;;;5.00;;
68655;SDS011;55638;51.122;13.606;2023-08-17T07:41:42;5.07;;;4.68;;
68655;SDS011;55638;51.122;13.606;2023-08-17T07:43:14;4.88;;;4.47;;
68655;SDS011;55638;51.122;13.606;2023-08-17T07:44:46;5.22;;;4.82;;
68655;SDS011;55638;51.122;13.606;2023-08-17T07:46:18;5.35;;;4.85;;
68655;SDS011;55638;51.122;13.606;2023-08-17T07:47:51;5.03;;;4.63;;
68655;SDS011;55638;51.122;13.606;2023-08-17T07:49:23;5.15;;;4.75;;
68655;SDS011;55638;51.122;13.606;2023-08-17T07:51:03;5.20;;;4.80;;
68655;SDS011;55638;51.122;13.606;2023-08-17T07:52:35;5.38;;;4.95;;
68655;SDS011;55638;51.122;13.606;2023-08-17T07:54:10;5.30;;;4.90;;
68655;SDS011;55638;51.122;13.606;2023-08-17T07:55:42;5.28;;;4.88;;
68655;SDS011;55638;51.122;13.606;2023-08-17T07:57:14;4.82;;;4.43;;
68655;SDS011;55638;51.122;13.606;2023-08-17T07:58:46;5.55;;;5.05;;
68655;SDS011;55638;51.122;13.606;2023-08-17T08:00:18;5.10;;;4.70;;
68655;SDS011;55638;51.122;13.606;2023-08-17T08:01:50;5.28;;;4.80;;
68655;SDS011;55638;51.122;13.606;2023-08-17T08:03:22;6.75;;;5.07;;
68655;SDS011;55638;51.122;13.606;2023-08-17T08:04:54;5.43;;;4.93;;
68655;SDS011;55638;51.122;13.606;2023-08-17T08:06:26;5.00;;;4.60;;
68655;SDS011;55638;51.122;13.606;2023-08-17T08:07:59;5.38;;;4.97;;
68655;SDS011;55638;51.122;13.606;2023-08-17T08:09:31;5.25;;;4.85;;
68655;SDS011;55638;51.122;13.606;2023-08-17T08:11:03;5.45;;;4.95;;
68655;SDS011;55638;51.122;13.606;2023-08-17T08:12:36;6.03;;;5.53;;
68655;SDS011;55638;51.122;13.606;2023-08-17T08:14:08;5.18;;;4.72;;
68655;SDS011;55638;51.122;13.606;2023-08-17T08:15:40;5.53;;;5.13;;
68655;SDS011;55638;51.122;13.606;2023-08-17T08:17:12;5.10;;;4.70;;
68655;SDS011;55638;51.122;13.606;2023-08-17T08:18:44;5.22;;;4.82;;
68655;SDS011;55638;51.122;13.606;2023-08-17T08:20:16;5.10;;;4.70;;
68655;SDS011;55638;51.122;13.606;2023-08-17T08:21:48;5.35;;;4.95;;
68655;SDS011;55638;51.122;13.606;2023-08-17T08:23:20;5.38;;;4.97;;
68655;SDS011;55638;51.122;13.606;2023-08-17T08:24:52;5.70;;;5.18;;
68655;SDS011;55638;51.122;13.606;2023-08-17T08:26:24;5.47;;;4.97;;
68655;SDS011;55638;51.122;13.606;2023-08-17T08:27:56;5.38;;;4.97;;
68655;SDS011;55638;51.122;13.606;2023-08-17T08:29:28;5.25;;;4.85;;
68655;SDS011;55638;51.122;13.606;2023-08-17T08:31:03;4.93;;;4.60;;
68655;SDS011;55638;51.122;13.606;2023-08-17T08:32:35;5.70;;;5.15;;
68655;SDS011;55638;51.122;13.606;2023-08-17T08:34:07;7.00;;;4.57;;
68655;SDS011;55638;51.122;13.606;2023-08-17T08:35:39;5.10;;;4.63;;
68655;SDS011;55638;51.122;13.606;2023-08-17T08:37:11;5.15;;;4.60;;
68655;SDS011;55638;51.122;13.606;2023-08-17T08:38:43;5.40;;;5.00;;
68655;SDS011;55638;51.122;13.606;2023-08-17T08:40:15;5.93;;;5.43;;
68655;SDS011;55638;51.122;13.606;2023-08-17T08:41:49;5.07;;;4.60;;
68655;SDS011;55638;51.122;13.606;2023-08-17T08:43:21;5.38;;;4.97;;
68655;SDS011;55638;51.122;13.606;2023-08-17T08:44:54;6.05;;;5.55;;
68655;SDS011;55638;51.122;13.606;2023-08-17T08:46:26;6.05;;;5.55;;
68655;SDS011;55638;51.122;13.606;2023-08-17T08:48:01;5.22;;;4.78;;
68655;SDS011;55638;51.122;13.606;2023-08-17T08:49:36;5.18;;;4.75;;
68655;SDS011;55638;51.122;13.606;2023-08-17T08:51:14;4.82;;;4.43;;
68655;SDS011;55638;51.122;13.606;2023-08-17T08:52:58;5.45;;;4.95;;
68655;SDS011;55638;51.122;13.606;2023-08-17T08:54:31;5.28;;;4.88;;
68655;SDS011;55638;51.122;13.606;2023-08-17T08:56:10;4.90;;;4.50;;
68655;SDS011;55638;51.122;13.606;2023-08-17T08:57:44;5.25;;;4.85;;
68655;SDS011;55638;51.122;13.606;2023-08-17T08:59:22;4.97;;;4.50;;
68655;SDS011;55638;51.122;13.606;2023-08-17T09:00:55;4.95;;;4.63;;
68655;SDS011;55638;51.122;13.606;2023-08-17T09:02:29;4.90;;;4.50;;
68655;SDS011;55638;51.122;13.606;2023-08-17T09:04:01;4.65;;;4.28;;
68655;SDS011;55638;51.122;13.606;2023-08-17T09:05:34;4.80;;;4.43;;
68655;SDS011;55638;51.122;13.606;2023-08-17T09:07:07;5.43;;;4.93;;
68655;SDS011;55638;51.122;13.606;2023-08-17T09:08:42;5.50;;;5.00;;
68655;SDS011;55638;51.122;13.606;2023-08-17T09:10:16;5.20;;;4.78;;
68655;SDS011;55638;51.122;13.606;2023-08-17T09:11:48;5.95;;;5.35;;
68655;SDS011;55638;51.122;13.606;2023-08-17T09:13:21;5.72;;;5.13;;